NOZ6HA ENGM-LFLL
Flight info
| Callsign | NOZ6HA |
|---|---|
| Flight time | N/A |
| Altitude | 34000 |
| Route | VIPPA DCT ELKOP DCT RETKA DCT OSGAM P601 KEMEG DCT RUVUD DCT KUGAL/N0455F350 DCT MALYK/N0453F340 DCT ISMEF DCT MISGO DCT LIMGO/N0457F350 N852 SUTAL DCT GTQ DCT POGOL DCT LASAT DCT MOROK Z24 BOLGI T14 MILPA |
| Aircraft | B738/M-SDE2E3FGHIRWXY/LB1 |
Departure
| Time | 2026-05-07 04:40 |
|---|---|
| Airport | Oslo-Gardermoen International Airport (ENGM) |
Arrival
| Time | N/A |
|---|---|
| Airport | Lyon Saint-Exupéry Airport (LFLL) |
| Time | Latitude | Longitude | Altitude | Speed | Heading |
|---|---|---|---|---|---|
| 2026-05-07 04:08 | 60.19676 | 11.09951 | 678 ft | 0 kts | 106° |
| 2026-05-07 04:32 | 60.19676 | 11.09950 | 678 ft | 1 kts | 106° |
| 2026-05-07 04:32 | 60.19682 | 11.09905 | 673 ft | 4 kts | 106° |
| 2026-05-07 04:32 | 60.19690 | 11.09854 | 677 ft | 3 kts | 106° |
| 2026-05-07 04:33 | 60.19697 | 11.09811 | 673 ft | 4 kts | 122° |
| 2026-05-07 04:33 | 60.19714 | 11.09776 | 676 ft | 4 kts | 165° |
| 2026-05-07 04:33 | 60.19731 | 11.09774 | 678 ft | 0 kts | 195° |
| 2026-05-07 04:35 | 60.19714 | 11.09718 | 677 ft | 11 kts | 270° |
| 2026-05-07 04:35 | 60.19739 | 11.09532 | 675 ft | 15 kts | 286° |
| 2026-05-07 04:35 | 60.19769 | 11.09326 | 676 ft | 15 kts | 286° |
| 2026-05-07 04:35 | 60.19798 | 11.09123 | 674 ft | 15 kts | 287° |
| 2026-05-07 04:36 | 60.19826 | 11.08927 | 674 ft | 14 kts | 285° |
| 2026-05-07 04:36 | 60.19850 | 11.08740 | 677 ft | 14 kts | 281° |
| 2026-05-07 04:36 | 60.19855 | 11.08560 | 676 ft | 14 kts | 221° |
| 2026-05-07 04:36 | 60.19759 | 11.08489 | 677 ft | 16 kts | 197° |
| 2026-05-07 04:37 | 60.19647 | 11.08428 | 678 ft | 18 kts | 197° |
| 2026-05-07 04:37 | 60.19519 | 11.08353 | 678 ft | 22 kts | 196° |
| 2026-05-07 04:37 | 60.19328 | 11.08240 | 679 ft | 32 kts | 196° |
| 2026-05-07 04:37 | 60.19114 | 11.08118 | 676 ft | 31 kts | 196° |
| 2026-05-07 04:38 | 60.18912 | 11.08002 | 680 ft | 29 kts | 195° |
| 2026-05-07 04:38 | 60.18722 | 11.07894 | 678 ft | 27 kts | 196° |
| 2026-05-07 04:38 | 60.18574 | 11.07776 | 681 ft | 18 kts | 243° |
| 2026-05-07 04:38 | 60.18594 | 11.07535 | 678 ft | 18 kts | 307° |
| 2026-05-07 04:39 | 60.18705 | 11.07491 | 677 ft | 18 kts | 14° |
| 2026-05-07 04:39 | 60.18989 | 11.07655 | 683 ft | 82 kts | 16° |
| 2026-05-07 04:39 | 60.19804 | 11.08120 | 678 ft | 158 kts | 15° |
| 2026-05-07 04:39 | 60.20971 | 11.08799 | 1279 ft | 181 kts | 15° |
| 2026-05-07 04:40 | 60.22186 | 11.09499 | 2464 ft | 182 kts | 14° |
| 2026-05-07 04:40 | 60.23409 | 11.10172 | 3567 ft | 183 kts | 14° |
| 2026-05-07 04:40 | 60.24649 | 11.10839 | 4516 ft | 192 kts | 14° |
| 2026-05-07 04:40 | 60.26012 | 11.11353 | 5074 ft | 204 kts | 356° |
| 2026-05-07 04:41 | 60.27498 | 11.10946 | 5384 ft | 229 kts | 350° |
| 2026-05-07 04:41 | 60.29163 | 11.10417 | 5621 ft | 255 kts | 346° |
| 2026-05-07 04:41 | 60.30721 | 11.08743 | 6190 ft | 265 kts | 313° |
| 2026-05-07 04:41 | 60.31579 | 11.05480 | 7117 ft | 266 kts | 280° |
| 2026-05-07 04:42 | 60.31451 | 11.01819 | 8152 ft | 267 kts | 250° |
| 2026-05-07 04:42 | 60.30564 | 10.98504 | 9015 ft | 271 kts | 246° |
| 2026-05-07 04:42 | 60.30299 | 10.94795 | 9889 ft | 272 kts | 281° |
| 2026-05-07 04:42 | 60.30867 | 10.91069 | 10401 ft | 289 kts | 288° |
| 2026-05-07 04:43 | 60.31496 | 10.87034 | 10605 ft | 314 kts | 288° |
| 2026-05-07 04:43 | 60.31889 | 10.82615 | 11025 ft | 328 kts | 265° |
| 2026-05-07 04:43 | 60.31137 | 10.78286 | 11849 ft | 332 kts | 237° |
| 2026-05-07 04:43 | 60.29409 | 10.75205 | 12880 ft | 337 kts | 213° |
| 2026-05-07 04:44 | 60.27338 | 10.72970 | 13723 ft | 339 kts | 213° |
| 2026-05-07 04:44 | 60.25276 | 10.70699 | 14365 ft | 343 kts | 214° |
| 2026-05-07 04:44 | 60.23195 | 10.68275 | 15068 ft | 345 kts | 216° |
| 2026-05-07 04:44 | 60.21142 | 10.65767 | 15798 ft | 345 kts | 217° |
| 2026-05-07 04:45 | 60.19098 | 10.63221 | 16517 ft | 347 kts | 217° |
| 2026-05-07 04:45 | 60.17026 | 10.60678 | 17191 ft | 352 kts | 213° |
| 2026-05-07 04:45 | 60.14666 | 10.59047 | 17864 ft | 366 kts | 197° |
| 2026-05-07 04:45 | 60.12148 | 10.58165 | 18534 ft | 369 kts | 196° |
| 2026-05-07 04:46 | 60.09630 | 10.57335 | 19056 ft | 373 kts | 196° |
| 2026-05-07 04:46 | 60.07059 | 10.56488 | 19566 ft | 377 kts | 196° |
| 2026-05-07 04:46 | 60.04466 | 10.55623 | 20130 ft | 379 kts | 197° |
| 2026-05-07 04:46 | 60.01854 | 10.54737 | 20597 ft | 383 kts | 197° |
| 2026-05-07 04:47 | 59.99211 | 10.53831 | 21119 ft | 386 kts | 197° |
| 2026-05-07 04:47 | 59.96552 | 10.52914 | 21652 ft | 388 kts | 197° |
| 2026-05-07 04:47 | 59.93881 | 10.51990 | 22181 ft | 392 kts | 197° |
| 2026-05-07 04:47 | 59.91183 | 10.51056 | 22691 ft | 395 kts | 197° |
| 2026-05-07 04:48 | 59.88458 | 10.50112 | 23186 ft | 398 kts | 197° |
| 2026-05-07 04:48 | 59.85716 | 10.49166 | 23649 ft | 401 kts | 197° |
| 2026-05-07 04:48 | 59.82999 | 10.48230 | 24039 ft | 403 kts | 197° |
| 2026-05-07 04:48 | 59.80226 | 10.47277 | 24436 ft | 405 kts | 197° |
| 2026-05-07 04:49 | 59.77440 | 10.46321 | 24827 ft | 407 kts | 197° |
| 2026-05-07 04:49 | 59.74633 | 10.45359 | 25153 ft | 410 kts | 197° |
| 2026-05-07 04:49 | 59.71815 | 10.44394 | 25504 ft | 413 kts | 197° |
| 2026-05-07 04:49 | 59.68952 | 10.43479 | 25867 ft | 417 kts | 195° |
| 2026-05-07 04:50 | 59.66078 | 10.42688 | 26194 ft | 416 kts | 198° |
| 2026-05-07 04:50 | 59.63265 | 10.41448 | 26680 ft | 413 kts | 199° |
| 2026-05-07 04:50 | 59.60443 | 10.40350 | 27226 ft | 413 kts | 197° |
| 2026-05-07 04:50 | 59.57611 | 10.39438 | 27737 ft | 412 kts | 196° |
| 2026-05-07 04:51 | 59.54784 | 10.38539 | 28197 ft | 412 kts | 196° |
| 2026-05-07 04:51 | 59.51956 | 10.37621 | 28666 ft | 411 kts | 197° |
| 2026-05-07 04:51 | 59.49141 | 10.36692 | 29149 ft | 410 kts | 197° |
| 2026-05-07 04:51 | 59.46357 | 10.35764 | 29553 ft | 410 kts | 197° |
| 2026-05-07 04:52 | 59.43542 | 10.34816 | 29883 ft | 412 kts | 197° |
| 2026-05-07 04:52 | 59.40715 | 10.33865 | 30297 ft | 412 kts | 197° |
| 2026-05-07 04:52 | 59.37889 | 10.32917 | 30734 ft | 410 kts | 197° |
| 2026-05-07 04:52 | 59.35080 | 10.31977 | 31125 ft | 410 kts | 197° |
| 2026-05-07 04:53 | 59.32260 | 10.31033 | 31462 ft | 411 kts | 197° |
| 2026-05-07 04:53 | 59.29440 | 10.30091 | 31815 ft | 411 kts | 197° |
| 2026-05-07 04:53 | 59.26620 | 10.29151 | 32202 ft | 410 kts | 196° |
| 2026-05-07 04:53 | 59.23803 | 10.28214 | 32577 ft | 410 kts | 196° |
| 2026-05-07 04:54 | 59.20988 | 10.27279 | 32929 ft | 410 kts | 196° |
| 2026-05-07 04:54 | 59.18175 | 10.26346 | 33221 ft | 411 kts | 196° |
| 2026-05-07 04:54 | 59.16301 | 10.25746 | 33412 ft | 413 kts | 194° |
| 2026-05-07 04:54 | 59.13409 | 10.25164 | 33490 ft | 423 kts | 190° |
| 2026-05-07 04:55 | 59.07428 | 10.24537 | 33621 ft | 437 kts | 189° |
| 2026-05-07 04:55 | 59.01277 | 10.23835 | 33737 ft | 447 kts | 189° |
| 2026-05-07 04:56 | 58.95004 | 10.22916 | 33832 ft | 454 kts | 194° |
| 2026-05-07 04:56 | 58.92022 | 10.21184 | 33846 ft | 444 kts | 211° |
| 2026-05-07 04:56 | 58.89283 | 10.18590 | 33971 ft | 444 kts | 211° |
| 2026-05-07 04:57 | 58.83680 | 10.13407 | 34030 ft | 447 kts | 210° |
| 2026-05-07 04:57 | 58.78047 | 10.08358 | 34034 ft | 445 kts | 210° |
| 2026-05-07 04:58 | 58.72430 | 10.03377 | 34038 ft | 444 kts | 210° |
| 2026-05-07 04:58 | 58.66815 | 9.98410 | 34042 ft | 444 kts | 210° |
| 2026-05-07 04:59 | 58.61206 | 9.93459 | 34031 ft | 443 kts | 210° |
| 2026-05-07 04:59 | 58.55575 | 9.88591 | 34027 ft | 445 kts | 208° |
| 2026-05-07 05:00 | 58.49854 | 9.84001 | 34038 ft | 446 kts | 208° |
| 2026-05-07 05:00 | 58.44112 | 9.79448 | 34040 ft | 446 kts | 208° |
| 2026-05-07 05:01 | 58.38380 | 9.74877 | 34036 ft | 447 kts | 208° |
| 2026-05-07 05:01 | 58.32647 | 9.70301 | 34042 ft | 447 kts | 208° |
| 2026-05-07 05:02 | 58.26943 | 9.65760 | 34039 ft | 447 kts | 208° |
| 2026-05-07 05:02 | 58.21201 | 9.61205 | 34035 ft | 447 kts | 208° |
| 2026-05-07 05:03 | 58.15452 | 9.56662 | 34033 ft | 447 kts | 208° |
| 2026-05-07 05:03 | 58.09689 | 9.52123 | 34013 ft | 447 kts | 207° |
| 2026-05-07 05:04 | 58.03933 | 9.47603 | 34030 ft | 448 kts | 207° |
| 2026-05-07 05:04 | 57.98150 | 9.43295 | 34028 ft | 453 kts | 201° |
| 2026-05-07 05:05 | 57.91973 | 9.40582 | 34032 ft | 456 kts | 197° |
| 2026-05-07 05:05 | 57.85768 | 9.38074 | 34035 ft | 456 kts | 197° |
| 2026-05-07 05:06 | 57.79558 | 9.35492 | 34030 ft | 457 kts | 198° |
| 2026-05-07 05:06 | 57.73348 | 9.32859 | 34037 ft | 457 kts | 198° |
| 2026-05-07 05:07 | 57.67181 | 9.30240 | 34035 ft | 458 kts | 198° |
| 2026-05-07 05:07 | 57.60969 | 9.27614 | 34035 ft | 458 kts | 198° |
| 2026-05-07 05:08 | 57.54725 | 9.24985 | 34031 ft | 458 kts | 197° |
| 2026-05-07 05:08 | 57.48496 | 9.22373 | 34034 ft | 459 kts | 197° |
| 2026-05-07 05:09 | 57.42250 | 9.19762 | 34037 ft | 460 kts | 197° |
| 2026-05-07 05:09 | 57.36045 | 9.17178 | 34036 ft | 460 kts | 197° |
| 2026-05-07 05:10 | 57.29788 | 9.14579 | 34022 ft | 461 kts | 197° |
| 2026-05-07 05:10 | 57.23533 | 9.11903 | 34037 ft | 460 kts | 198° |
| 2026-05-07 05:11 | 57.17339 | 9.08889 | 34043 ft | 460 kts | 199° |
| 2026-05-07 05:11 | 57.11154 | 9.05844 | 34038 ft | 460 kts | 199° |
| 2026-05-07 05:12 | 57.04993 | 9.02871 | 34002 ft | 461 kts | 198° |
| 2026-05-07 05:12 | 56.98792 | 8.99914 | 34030 ft | 460 kts | 198° |
| 2026-05-07 05:13 | 56.92582 | 8.96965 | 34039 ft | 460 kts | 198° |
| 2026-05-07 05:13 | 56.86379 | 8.94028 | 34037 ft | 460 kts | 198° |
| 2026-05-07 05:14 | 56.80179 | 8.91101 | 34044 ft | 460 kts | 198° |
| 2026-05-07 05:14 | 56.73982 | 8.88185 | 34041 ft | 460 kts | 198° |
| 2026-05-07 05:15 | 56.67752 | 8.85456 | 34045 ft | 461 kts | 195° |
| 2026-05-07 05:15 | 56.61460 | 8.83150 | 34046 ft | 461 kts | 194° |
| 2026-05-07 05:16 | 56.55160 | 8.80873 | 34038 ft | 461 kts | 195° |
| 2026-05-07 05:16 | 56.48875 | 8.78549 | 34029 ft | 461 kts | 195° |
| 2026-05-07 05:17 | 56.42635 | 8.76217 | 34039 ft | 461 kts | 195° |
| 2026-05-07 05:17 | 56.36346 | 8.73867 | 34036 ft | 461 kts | 195° |
| 2026-05-07 05:18 | 56.30067 | 8.71532 | 34039 ft | 460 kts | 195° |
| 2026-05-07 05:18 | 56.23794 | 8.69207 | 34043 ft | 460 kts | 194° |
| 2026-05-07 05:19 | 56.17508 | 8.66886 | 34055 ft | 460 kts | 194° |
| 2026-05-07 05:19 | 56.11266 | 8.64589 | 34055 ft | 461 kts | 194° |
| 2026-05-07 05:20 | 56.04980 | 8.62284 | 34050 ft | 461 kts | 194° |
| 2026-05-07 05:20 | 55.98689 | 8.59984 | 34023 ft | 461 kts | 194° |
| 2026-05-07 05:21 | 55.89231 | 8.56541 | 34053 ft | 462 kts | 194° |
| 2026-05-07 05:22 | 55.82923 | 8.54254 | 34052 ft | 463 kts | 194° |
| 2026-05-07 05:22 | 55.76599 | 8.51969 | 34052 ft | 464 kts | 194° |
| 2026-05-07 05:23 | 55.70310 | 8.49704 | 34051 ft | 464 kts | 194° |
| 2026-05-07 05:23 | 55.63984 | 8.47432 | 34053 ft | 464 kts | 194° |
| 2026-05-07 05:24 | 55.57643 | 8.45163 | 34049 ft | 464 kts | 194° |
| 2026-05-07 05:24 | 55.51538 | 8.41761 | 34056 ft | 458 kts | 210° |
| 2026-05-07 05:25 | 55.46380 | 8.35325 | 34058 ft | 453 kts | 224° |
| 2026-05-07 05:25 | 55.41761 | 8.27806 | 34056 ft | 455 kts | 225° |
| 2026-05-07 05:26 | 55.37082 | 8.20249 | 34053 ft | 457 kts | 224° |
| 2026-05-07 05:26 | 55.32355 | 8.12728 | 34055 ft | 458 kts | 224° |
| 2026-05-07 05:27 | 55.27612 | 8.05238 | 34056 ft | 459 kts | 224° |
| 2026-05-07 05:27 | 55.22859 | 7.97758 | 34046 ft | 459 kts | 224° |
| 2026-05-07 05:28 | 55.18099 | 7.90288 | 34052 ft | 459 kts | 224° |
| 2026-05-07 05:28 | 55.13342 | 7.82846 | 34052 ft | 459 kts | 224° |
| 2026-05-07 05:29 | 55.08608 | 7.75462 | 34049 ft | 459 kts | 224° |
| 2026-05-07 05:29 | 55.03847 | 7.68064 | 34050 ft | 458 kts | 223° |
| 2026-05-07 05:29 | 55.01245 | 7.64839 | 34025 ft | 462 kts | 208° |
| 2026-05-07 05:30 | 54.98233 | 7.62847 | 34055 ft | 466 kts | 195° |
| 2026-05-07 05:30 | 54.95012 | 7.62098 | 34046 ft | 470 kts | 181° |
| 2026-05-07 05:30 | 54.91736 | 7.62272 | 34060 ft | 471 kts | 179° |
| 2026-05-07 05:31 | 54.85175 | 7.62778 | 34052 ft | 472 kts | 179° |
| 2026-05-07 05:31 | 54.78611 | 7.63227 | 34034 ft | 470 kts | 180° |
| 2026-05-07 05:32 | 54.72084 | 7.63597 | 34028 ft | 468 kts | 180° |
| 2026-05-07 05:32 | 54.65580 | 7.63935 | 34037 ft | 466 kts | 180° |
| 2026-05-07 05:33 | 54.59126 | 7.64267 | 34041 ft | 466 kts | 180° |
| 2026-05-07 05:33 | 54.52648 | 7.64601 | 34041 ft | 465 kts | 180° |
| 2026-05-07 05:34 | 54.46184 | 7.64936 | 34040 ft | 464 kts | 180° |
| 2026-05-07 05:34 | 54.39730 | 7.65269 | 34037 ft | 463 kts | 180° |
| 2026-05-07 05:35 | 54.33287 | 7.65601 | 34035 ft | 463 kts | 180° |
| 2026-05-07 05:35 | 54.26849 | 7.65932 | 34037 ft | 463 kts | 180° |
| 2026-05-07 05:36 | 54.20420 | 7.66261 | 34031 ft | 461 kts | 180° |
| 2026-05-07 05:36 | 54.14042 | 7.66586 | 34032 ft | 461 kts | 180° |
| 2026-05-07 05:37 | 54.07632 | 7.66912 | 34032 ft | 461 kts | 180° |
| 2026-05-07 05:37 | 54.01219 | 7.67237 | 34033 ft | 460 kts | 180° |
| 2026-05-07 05:38 | 53.94813 | 7.67561 | 34027 ft | 460 kts | 180° |
| 2026-05-07 05:38 | 53.88420 | 7.67884 | 34020 ft | 460 kts | 180° |
| 2026-05-07 05:39 | 53.82061 | 7.68203 | 34021 ft | 460 kts | 180° |
| 2026-05-07 05:39 | 53.75667 | 7.68523 | 34021 ft | 460 kts | 180° |
| 2026-05-07 05:40 | 53.69270 | 7.68843 | 34020 ft | 459 kts | 180° |
| 2026-05-07 05:40 | 53.62866 | 7.69162 | 34025 ft | 460 kts | 180° |
| 2026-05-07 05:41 | 53.57551 | 7.69426 | 34023 ft | 460 kts | 180° |
| 2026-05-07 05:41 | 53.51151 | 7.69742 | 34026 ft | 459 kts | 180° |
| 2026-05-07 05:42 | 53.44756 | 7.70058 | 34016 ft | 460 kts | 180° |
| 2026-05-07 05:42 | 53.38354 | 7.70373 | 33997 ft | 460 kts | 180° |
| 2026-05-07 05:43 | 53.31952 | 7.70687 | 33989 ft | 460 kts | 180° |
| 2026-05-07 05:43 | 53.25541 | 7.71001 | 33987 ft | 461 kts | 179° |
| 2026-05-07 05:44 | 53.19146 | 7.71313 | 33996 ft | 461 kts | 179° |
| 2026-05-07 05:44 | 53.12729 | 7.71625 | 33994 ft | 462 kts | 179° |
| 2026-05-07 05:45 | 53.06287 | 7.71938 | 33997 ft | 462 kts | 179° |
| 2026-05-07 05:45 | 52.99856 | 7.71853 | 33976 ft | 461 kts | 189° |
| 2026-05-07 05:46 | 52.93755 | 7.68998 | 33996 ft | 459 kts | 204° |
| 2026-05-07 05:46 | 52.87894 | 7.64773 | 33991 ft | 460 kts | 204° |
| 2026-05-07 05:47 | 52.82006 | 7.60574 | 33997 ft | 461 kts | 204° |
| 2026-05-07 05:47 | 52.76099 | 7.56456 | 33994 ft | 461 kts | 204° |
| 2026-05-07 05:48 | 52.70173 | 7.52356 | 33998 ft | 461 kts | 204° |
| 2026-05-07 05:48 | 52.64258 | 7.48270 | 34018 ft | 461 kts | 203° |
| 2026-05-07 05:49 | 52.58210 | 7.44740 | 34021 ft | 461 kts | 198° |
| 2026-05-07 05:49 | 52.52041 | 7.41765 | 34001 ft | 462 kts | 197° |
| 2026-05-07 05:50 | 52.45861 | 7.38798 | 34004 ft | 462 kts | 198° |
| 2026-05-07 05:50 | 52.39695 | 7.35770 | 34001 ft | 463 kts | 198° |
| 2026-05-07 05:51 | 52.33528 | 7.32712 | 34000 ft | 463 kts | 198° |
| 2026-05-07 05:51 | 52.27404 | 7.29677 | 33994 ft | 463 kts | 198° |
| 2026-05-07 05:52 | 52.21233 | 7.26631 | 33999 ft | 463 kts | 197° |
| 2026-05-07 05:52 | 52.15061 | 7.23595 | 33997 ft | 463 kts | 197° |
| 2026-05-07 05:53 | 52.08880 | 7.20564 | 33998 ft | 464 kts | 197° |
| 2026-05-07 05:53 | 52.02706 | 7.17543 | 33999 ft | 464 kts | 198° |
| 2026-05-07 05:54 | 51.96513 | 7.14523 | 33995 ft | 464 kts | 197° |
| 2026-05-07 05:54 | 51.90327 | 7.11515 | 33994 ft | 464 kts | 197° |
| 2026-05-07 05:55 | 51.84179 | 7.08538 | 33994 ft | 464 kts | 197° |
| 2026-05-07 05:55 | 51.77992 | 7.05548 | 33995 ft | 464 kts | 197° |
| 2026-05-07 05:56 | 51.71805 | 7.02565 | 33996 ft | 464 kts | 198° |
| 2026-05-07 05:56 | 51.65615 | 6.99589 | 33995 ft | 464 kts | 198° |
| 2026-05-07 05:57 | 51.59428 | 6.96622 | 33994 ft | 464 kts | 197° |
| 2026-05-07 05:57 | 51.53228 | 6.93659 | 34003 ft | 464 kts | 197° |
| 2026-05-07 05:58 | 51.47036 | 6.90708 | 34004 ft | 464 kts | 197° |
| 2026-05-07 05:58 | 51.40847 | 6.87769 | 34005 ft | 464 kts | 197° |
| 2026-05-07 05:59 | 51.34576 | 6.85368 | 34009 ft | 465 kts | 193° |
| 2026-05-07 05:59 | 51.28242 | 6.83247 | 34021 ft | 465 kts | 193° |
| 2026-05-07 06:00 | 51.21902 | 6.81118 | 34017 ft | 465 kts | 193° |
| 2026-05-07 06:00 | 51.15560 | 6.78948 | 34022 ft | 466 kts | 193° |
| 2026-05-07 06:01 | 51.09261 | 6.76776 | 34013 ft | 466 kts | 193° |
| 2026-05-07 06:01 | 51.02930 | 6.74596 | 33995 ft | 466 kts | 193° |
| 2026-05-07 06:02 | 50.96594 | 6.72423 | 33992 ft | 466 kts | 193° |
| 2026-05-07 06:02 | 50.90254 | 6.70254 | 33995 ft | 465 kts | 193° |
| 2026-05-07 06:03 | 50.83916 | 6.68092 | 33994 ft | 465 kts | 193° |
| 2026-05-07 06:03 | 50.77583 | 6.65939 | 33993 ft | 465 kts | 192° |
| 2026-05-07 06:04 | 50.71250 | 6.63792 | 33995 ft | 465 kts | 193° |
| 2026-05-07 06:04 | 50.64907 | 6.61647 | 33992 ft | 466 kts | 193° |
| 2026-05-07 06:05 | 50.58605 | 6.59522 | 33989 ft | 466 kts | 193° |
| 2026-05-07 06:05 | 50.52271 | 6.57391 | 33987 ft | 466 kts | 193° |
| 2026-05-07 06:06 | 50.45917 | 6.55260 | 33977 ft | 466 kts | 192° |
| 2026-05-07 06:06 | 50.39570 | 6.53136 | 33970 ft | 466 kts | 193° |
| 2026-05-07 06:07 | 50.33224 | 6.51021 | 33974 ft | 466 kts | 192° |
| 2026-05-07 06:07 | 50.26914 | 6.48922 | 33964 ft | 467 kts | 192° |
| 2026-05-07 06:08 | 50.20545 | 6.46809 | 33960 ft | 467 kts | 193° |
| 2026-05-07 06:08 | 50.14187 | 6.44705 | 33957 ft | 467 kts | 193° |
| 2026-05-07 06:09 | 50.07831 | 6.42607 | 33951 ft | 467 kts | 192° |
| 2026-05-07 06:09 | 50.01519 | 6.40530 | 33966 ft | 467 kts | 192° |
| 2026-05-07 06:10 | 49.95166 | 6.38446 | 33954 ft | 466 kts | 192° |
| 2026-05-07 06:10 | 49.88817 | 6.36368 | 33971 ft | 466 kts | 192° |
| 2026-05-07 06:11 | 49.82465 | 6.34295 | 33978 ft | 467 kts | 192° |
| 2026-05-07 06:11 | 49.76084 | 6.32216 | 33987 ft | 467 kts | 192° |
| 2026-05-07 06:12 | 49.69721 | 6.30150 | 34000 ft | 468 kts | 192° |
| 2026-05-07 06:12 | 49.63290 | 6.29462 | 34001 ft | 468 kts | 173° |
| 2026-05-07 06:13 | 49.57056 | 6.32276 | 34014 ft | 469 kts | 156° |
| 2026-05-07 06:13 | 49.51090 | 6.36354 | 33982 ft | 469 kts | 157° |
| 2026-05-07 06:14 | 49.45066 | 6.40271 | 33984 ft | 469 kts | 157° |
| 2026-05-07 06:14 | 49.39083 | 6.44304 | 33994 ft | 469 kts | 156° |
| 2026-05-07 06:15 | 49.33148 | 6.48370 | 33989 ft | 469 kts | 156° |
| 2026-05-07 06:15 | 49.27178 | 6.52426 | 33996 ft | 469 kts | 156° |
| 2026-05-07 06:16 | 49.21197 | 6.56460 | 34004 ft | 469 kts | 156° |
| 2026-05-07 06:16 | 49.15206 | 6.60486 | 33996 ft | 470 kts | 156° |
| 2026-05-07 06:17 | 49.09223 | 6.64499 | 34002 ft | 469 kts | 157° |
| 2026-05-07 06:17 | 49.03236 | 6.68504 | 34007 ft | 469 kts | 157° |
| 2026-05-07 06:18 | 48.97055 | 6.71304 | 34011 ft | 467 kts | 173° |
| 2026-05-07 06:18 | 48.90573 | 6.71464 | 34015 ft | 466 kts | 183° |
| 2026-05-07 06:19 | 48.84079 | 6.71084 | 34012 ft | 466 kts | 182° |
| 2026-05-07 06:19 | 48.77619 | 6.70767 | 34015 ft | 466 kts | 182° |
| 2026-05-07 06:20 | 48.71135 | 6.70505 | 34011 ft | 466 kts | 182° |
| 2026-05-07 06:20 | 48.64639 | 6.70257 | 34021 ft | 466 kts | 182° |
| 2026-05-07 06:21 | 48.58148 | 6.70006 | 34023 ft | 466 kts | 182° |
| 2026-05-07 06:21 | 48.51699 | 6.69756 | 34022 ft | 466 kts | 182° |
| 2026-05-07 06:22 | 48.45216 | 6.69505 | 34010 ft | 466 kts | 182° |
| 2026-05-07 06:22 | 48.35484 | 6.69131 | 34023 ft | 466 kts | 182° |
| 2026-05-07 06:23 | 48.28992 | 6.68888 | 34023 ft | 467 kts | 182° |
| 2026-05-07 06:23 | 48.22497 | 6.68645 | 34012 ft | 467 kts | 182° |
| 2026-05-07 06:24 | 48.16039 | 6.68404 | 34020 ft | 466 kts | 182° |
| 2026-05-07 06:24 | 48.09541 | 6.68161 | 34017 ft | 466 kts | 182° |
| 2026-05-07 06:25 | 48.03040 | 6.67919 | 34003 ft | 466 kts | 182° |
| 2026-05-07 06:25 | 47.96554 | 6.67679 | 34017 ft | 466 kts | 182° |
| 2026-05-07 06:26 | 47.91154 | 6.67479 | 34018 ft | 466 kts | 182° |
| 2026-05-07 06:26 | 47.83608 | 6.67201 | 34018 ft | 466 kts | 182° |
| 2026-05-07 06:27 | 47.77123 | 6.66963 | 34021 ft | 466 kts | 182° |
| 2026-05-07 06:27 | 47.71726 | 6.66765 | 34016 ft | 466 kts | 182° |
| 2026-05-07 06:28 | 47.65237 | 6.66527 | 34022 ft | 466 kts | 182° |
| 2026-05-07 06:28 | 47.58752 | 6.66290 | 34013 ft | 466 kts | 182° |
| 2026-05-07 06:29 | 47.52258 | 6.66054 | 34022 ft | 466 kts | 182° |
| 2026-05-07 06:29 | 47.45770 | 6.65819 | 34022 ft | 466 kts | 182° |
| 2026-05-07 06:30 | 47.39270 | 6.65583 | 34016 ft | 466 kts | 183° |
| 2026-05-07 06:30 | 47.32822 | 6.65338 | 34026 ft | 466 kts | 183° |
| 2026-05-07 06:31 | 47.26340 | 6.65086 | 34018 ft | 465 kts | 184° |
| 2026-05-07 06:31 | 47.23158 | 6.64425 | 34011 ft | 461 kts | 197° |
| 2026-05-07 06:31 | 47.20174 | 6.62710 | 34025 ft | 459 kts | 209° |
| 2026-05-07 06:32 | 47.17511 | 6.60160 | 34010 ft | 456 kts | 221° |
| 2026-05-07 06:32 | 47.15161 | 6.57040 | 34032 ft | 456 kts | 224° |
| 2026-05-07 06:32 | 47.10522 | 6.50740 | 34019 ft | 457 kts | 224° |
| 2026-05-07 06:33 | 47.05802 | 6.44465 | 34020 ft | 458 kts | 223° |
| 2026-05-07 06:33 | 47.01046 | 6.38230 | 34014 ft | 458 kts | 223° |
| 2026-05-07 06:34 | 46.96290 | 6.32011 | 34015 ft | 458 kts | 223° |
| 2026-05-07 06:34 | 46.91531 | 6.25806 | 34021 ft | 458 kts | 223° |
| 2026-05-07 06:35 | 46.86772 | 6.19618 | 34022 ft | 458 kts | 223° |
| 2026-05-07 06:35 | 46.82038 | 6.13476 | 34022 ft | 457 kts | 223° |
| 2026-05-07 06:36 | 46.77274 | 6.07309 | 34020 ft | 457 kts | 223° |
| 2026-05-07 06:36 | 46.72513 | 6.01158 | 34021 ft | 456 kts | 223° |
| 2026-05-07 06:37 | 46.67455 | 5.95562 | 34022 ft | 460 kts | 208° |
| 2026-05-07 06:37 | 46.61395 | 5.92736 | 34023 ft | 466 kts | 189° |
| 2026-05-07 06:38 | 46.54905 | 5.91782 | 34024 ft | 466 kts | 187° |
| 2026-05-07 06:38 | 46.48477 | 5.90870 | 34018 ft | 466 kts | 188° |
| 2026-05-07 06:39 | 46.42026 | 5.89866 | 34013 ft | 466 kts | 188° |
| 2026-05-07 06:39 | 46.35566 | 5.88833 | 34023 ft | 466 kts | 189° |
| 2026-05-07 06:40 | 46.29162 | 5.87818 | 34014 ft | 466 kts | 189° |
| 2026-05-07 06:40 | 46.22721 | 5.86798 | 34010 ft | 465 kts | 189° |
| 2026-05-07 06:41 | 46.16274 | 5.85789 | 34024 ft | 465 kts | 189° |
| 2026-05-07 06:41 | 46.09825 | 5.84798 | 34022 ft | 466 kts | 189° |
| 2026-05-07 06:42 | 46.03372 | 5.83815 | 34018 ft | 465 kts | 189° |
| 2026-05-07 06:42 | 45.96975 | 5.82860 | 34014 ft | 465 kts | 189° |
| 2026-05-07 06:43 | 45.90546 | 5.81932 | 34021 ft | 464 kts | 189° |
| 2026-05-07 06:43 | 45.84113 | 5.81015 | 34020 ft | 464 kts | 189° |
| 2026-05-07 06:44 | 45.77687 | 5.80121 | 34006 ft | 464 kts | 189° |
| 2026-05-07 06:44 | 45.71257 | 5.79261 | 34015 ft | 464 kts | 189° |
| 2026-05-07 06:45 | 45.64861 | 5.78419 | 34022 ft | 464 kts | 189° |
| 2026-05-07 06:45 | 45.58433 | 5.77586 | 34017 ft | 464 kts | 189° |
| 2026-05-07 06:46 | 45.51989 | 5.76775 | 34017 ft | 463 kts | 189° |
| 2026-05-07 06:46 | 45.45556 | 5.75977 | 34028 ft | 464 kts | 189° |
| 2026-05-07 06:47 | 45.39163 | 5.75201 | 34017 ft | 464 kts | 189° |
| 2026-05-07 06:47 | 45.32722 | 5.74456 | 34007 ft | 464 kts | 189° |
| 2026-05-07 06:48 | 45.26272 | 5.73774 | 33998 ft | 464 kts | 188° |
| 2026-05-07 06:48 | 45.19817 | 5.73079 | 34001 ft | 464 kts | 189° |
| 2026-05-07 06:49 | 45.13399 | 5.72408 | 34006 ft | 464 kts | 189° |
| 2026-05-07 06:49 | 45.06959 | 5.71744 | 34004 ft | 464 kts | 189° |
| 2026-05-07 06:50 | 45.00511 | 5.71089 | 34002 ft | 464 kts | 189° |
| 2026-05-07 06:50 | 44.94060 | 5.70451 | 33995 ft | 465 kts | 189° |
| 2026-05-07 06:51 | 44.87608 | 5.69820 | 33989 ft | 465 kts | 189° |
| 2026-05-07 06:51 | 44.81208 | 5.69214 | 33997 ft | 462 kts | 189° |
| 2026-05-07 06:52 | 44.74792 | 5.68641 | 33998 ft | 461 kts | 189° |
| 2026-05-07 06:52 | 44.68383 | 5.68082 | 33988 ft | 461 kts | 189° |
| 2026-05-07 06:53 | 44.61993 | 5.67536 | 33990 ft | 459 kts | 189° |
| 2026-05-07 06:53 | 44.55613 | 5.66993 | 33999 ft | 459 kts | 189° |
| 2026-05-07 06:54 | 44.49268 | 5.66451 | 34001 ft | 460 kts | 189° |
| 2026-05-07 06:54 | 44.42874 | 5.65911 | 33991 ft | 458 kts | 189° |
| 2026-05-07 06:55 | 44.36499 | 5.65391 | 33993 ft | 458 kts | 189° |
| 2026-05-07 06:55 | 44.30165 | 5.64878 | 33981 ft | 458 kts | 188° |
| 2026-05-07 06:56 | 44.23808 | 5.64378 | 33982 ft | 457 kts | 189° |
| 2026-05-07 06:56 | 44.17464 | 5.63907 | 33984 ft | 456 kts | 188° |
| 2026-05-07 06:57 | 44.11131 | 5.63445 | 33989 ft | 455 kts | 189° |
| 2026-05-07 06:57 | 44.04783 | 5.62990 | 33978 ft | 455 kts | 189° |
| 2026-05-07 06:58 | 43.98506 | 5.62557 | 33996 ft | 454 kts | 189° |
| 2026-05-07 06:58 | 43.92182 | 5.62125 | 33988 ft | 454 kts | 189° |
| 2026-05-07 06:59 | 43.85862 | 5.61695 | 33983 ft | 453 kts | 189° |
| 2026-05-07 06:59 | 43.79552 | 5.61263 | 33992 ft | 453 kts | 189° |
| 2026-05-07 07:00 | 43.73253 | 5.60832 | 33996 ft | 453 kts | 189° |
| 2026-05-07 07:00 | 43.66996 | 5.60406 | 33982 ft | 452 kts | 189° |
| 2026-05-07 07:01 | 43.60724 | 5.59983 | 33988 ft | 450 kts | 189° |
| 2026-05-07 07:01 | 43.54460 | 5.59562 | 33998 ft | 450 kts | 189° |
| 2026-05-07 07:02 | 43.48207 | 5.59147 | 33977 ft | 449 kts | 189° |
| 2026-05-07 07:02 | 43.41995 | 5.58746 | 33999 ft | 449 kts | 189° |
| 2026-05-07 07:03 | 43.35750 | 5.58350 | 33989 ft | 448 kts | 189° |
| 2026-05-07 07:03 | 43.29512 | 5.57956 | 33998 ft | 448 kts | 189° |
| 2026-05-07 07:04 | 43.23265 | 5.57587 | 33988 ft | 450 kts | 189° |
| 2026-05-07 07:04 | 43.17002 | 5.57238 | 33998 ft | 450 kts | 189° |
| 2026-05-07 07:05 | 43.10721 | 5.56892 | 33995 ft | 451 kts | 189° |
| 2026-05-07 07:05 | 43.04488 | 5.56564 | 33987 ft | 451 kts | 189° |
| 2026-05-07 07:06 | 42.98205 | 5.56254 | 33993 ft | 452 kts | 189° |
| 2026-05-07 07:06 | 42.91914 | 5.55951 | 33997 ft | 452 kts | 189° |
| 2026-05-07 07:07 | 42.85612 | 5.55650 | 33990 ft | 452 kts | 189° |
| 2026-05-07 07:07 | 42.79308 | 5.55357 | 33998 ft | 453 kts | 189° |
| 2026-05-07 07:08 | 42.73046 | 5.55070 | 34001 ft | 453 kts | 189° |
| 2026-05-07 07:08 | 42.66700 | 5.54781 | 34002 ft | 453 kts | 189° |
| 2026-05-07 07:09 | 42.60432 | 5.54495 | 34003 ft | 453 kts | 189° |
| 2026-05-07 07:09 | 42.54128 | 5.54207 | 34005 ft | 453 kts | 189° |
| 2026-05-07 07:10 | 42.47828 | 5.53921 | 33981 ft | 453 kts | 188° |
| 2026-05-07 07:10 | 42.41532 | 5.53632 | 34003 ft | 452 kts | 189° |
| 2026-05-07 07:11 | 42.35232 | 5.53340 | 34010 ft | 452 kts | 189° |
| 2026-05-07 07:11 | 42.28932 | 5.53047 | 34009 ft | 453 kts | 189° |
| 2026-05-07 07:12 | 42.22644 | 5.52749 | 34005 ft | 452 kts | 188° |
| 2026-05-07 07:12 | 42.16364 | 5.52440 | 34009 ft | 452 kts | 189° |
| 2026-05-07 07:13 | 42.10115 | 5.52128 | 34016 ft | 451 kts | 189° |
| 2026-05-07 07:13 | 42.03839 | 5.51808 | 33995 ft | 451 kts | 188° |
| 2026-05-07 07:14 | 41.97562 | 5.51468 | 34013 ft | 450 kts | 189° |
| 2026-05-07 07:14 | 41.91327 | 5.51124 | 34017 ft | 450 kts | 189° |
| 2026-05-07 07:15 | 41.85064 | 5.50774 | 33999 ft | 450 kts | 188° |
| 2026-05-07 07:15 | 41.79858 | 5.50476 | 34011 ft | 450 kts | 189° |
| 2026-05-07 07:16 | 41.73603 | 5.50109 | 34017 ft | 450 kts | 189° |
| 2026-05-07 07:16 | 41.67350 | 5.49738 | 34019 ft | 450 kts | 189° |
| 2026-05-07 07:17 | 41.61084 | 5.49359 | 34014 ft | 449 kts | 188° |
| 2026-05-07 07:17 | 41.54845 | 5.48962 | 34017 ft | 449 kts | 189° |
| 2026-05-07 07:18 | 41.48607 | 5.48556 | 34015 ft | 449 kts | 189° |
| 2026-05-07 07:18 | 41.42367 | 5.48146 | 33997 ft | 448 kts | 189° |
| 2026-05-07 07:19 | 41.36177 | 5.47741 | 34011 ft | 447 kts | 189° |
| 2026-05-07 07:19 | 41.29966 | 5.47338 | 34014 ft | 446 kts | 189° |
| 2026-05-07 07:20 | 41.23749 | 5.46934 | 34014 ft | 446 kts | 189° |
| 2026-05-07 07:20 | 41.17551 | 5.46556 | 34007 ft | 445 kts | 189° |
| 2026-05-07 07:21 | 41.11374 | 5.46228 | 34012 ft | 443 kts | 189° |
| 2026-05-07 07:21 | 41.05373 | 5.45920 | 33998 ft | 425 kts | 189° |
| 2026-05-07 07:22 | 40.99578 | 5.45653 | 33975 ft | 409 kts | 189° |
| 2026-05-07 07:22 | 40.93987 | 5.45467 | 33997 ft | 394 kts | 189° |
| 2026-05-07 07:23 | 40.88582 | 5.45337 | 33998 ft | 382 kts | 189° |
| 2026-05-07 07:23 | 40.83339 | 5.45244 | 33997 ft | 372 kts | 189° |
| 2026-05-07 07:24 | 40.78231 | 5.45182 | 33989 ft | 362 kts | 189° |
| 2026-05-07 07:24 | 40.73262 | 5.45144 | 33997 ft | 352 kts | 189° |
| 2026-05-07 07:25 | 40.66067 | 5.45133 | 33997 ft | 341 kts | 189° |